Time,TemperatureF,DewpointF,PressureIn,WindDirection,WindDirectionDegrees,WindSpeedMPH,WindSpeedGustMPH,Humidity,HourlyPrecipIn,Conditions,Clouds,dailyrainin,SoftwareType,DateUTC
2013-03-13 00:03:00,25.0,-99.9,-100.00,NW,307,8.0,14.0,-999,0.00,,,0.03,,2013-03-13 05:03:00,
2013-03-13 00:13:00,25.0,-99.9,-100.00,NW,307,8.0,14.0,-999,0.00,,,0.03,,2013-03-13 05:13:00,
2013-03-13 00:22:00,25.0,-99.9,-100.00,NW,307,8.0,14.0,-999,0.00,,,0.03,,2013-03-13 05:22:00,
2013-03-13 00:33:00,25.0,-99.9,-100.00,WNW,283,8.0,20.0,-999,0.00,,,0.03,,2013-03-13 05:33:00,
2013-03-13 00:43:00,25.0,-99.9,-100.00,WNW,283,8.0,20.0,-999,0.00,,,0.03,,2013-03-13 05:43:00,
2013-03-13 00:53:00,25.0,-99.9,-100.00,WNW,283,8.0,20.0,-999,0.00,,,0.03,,2013-03-13 05:53:00,
2013-03-13 01:03:00,25.0,-99.9,-100.00,WNW,289,5.0,11.0,-999,0.00,,,0.03,,2013-03-13 06:03:00,
2013-03-13 01:13:00,25.0,-99.9,-100.00,WNW,289,5.0,11.0,-999,0.00,,,0.03,,2013-03-13 06:13:00,
2013-03-13 01:23:00,25.0,-99.9,-100.00,WNW,289,5.0,11.0,-999,0.00,,,0.03,,2013-03-13 06:23:00,
2013-03-13 01:33:00,24.0,-99.9,-100.00,WNW,286,11.0,15.0,-999,0.00,,,0.03,,2013-03-13 06:33:00,
2013-03-13 01:43:00,24.0,-99.9,-100.00,WNW,286,11.0,15.0,-999,0.00,,,0.03,,2013-03-13 06:43:00,
2013-03-13 01:53:00,24.0,-99.9,-100.00,WNW,286,11.0,15.0,-999,0.00,,,0.03,,2013-03-13 06:53:00,
2013-03-13 02:03:00,24.0,-99.9,-100.00,WNW,299,9.0,18.0,-999,0.00,,,0.03,,2013-03-13 07:03:00,
2013-03-13 02:12:00,24.0,-99.9,-100.00,WNW,299,9.0,18.0,-999,0.00,,,0.03,,2013-03-13 07:12:00,
2013-03-13 02:23:00,24.0,-99.9,-100.00,WNW,299,9.0,18.0,-999,0.00,,,0.03,,2013-03-13 07:23:00,
2013-03-13 02:33:00,23.0,-99.9,-100.00,West,278,8.0,15.0,-999,0.00,,,0.03,,2013-03-13 07:33:00,
2013-03-13 02:43:00,23.0,-99.9,-100.00,West,278,8.0,15.0,-999,0.00,,,0.03,,2013-03-13 07:43:00,
2013-03-13 02:53:00,23.0,-99.9,-100.00,West,278,8.0,15.0,-999,0.00,,,0.03,,2013-03-13 07:53:00,
2013-03-13 03:04:00,23.0,-99.9,-100.00,West,273,9.0,16.0,-999,0.00,,,0.03,,2013-03-13 08:04:00,
2013-03-13 03:12:00,23.0,-99.9,-100.00,West,273,9.0,16.0,-999,0.00,,,0.03,,2013-03-13 08:12:00,
2013-03-13 03:23:00,23.0,-99.9,-100.00,West,273,9.0,16.0,-999,0.00,,,0.03,,2013-03-13 08:23:00,
2013-03-13 03:33:00,23.0,-99.9,-100.00,WNW,292,8.0,13.0,-999,0.00,,,0.03,,2013-03-13 08:33:00,
2013-03-13 03:43:00,23.0,-99.9,-100.00,WNW,292,8.0,13.0,-999,0.00,,,0.03,,2013-03-13 08:43:00,
2013-03-13 03:54:00,23.0,-99.9,-100.00,WNW,292,8.0,13.0,-999,0.00,,,0.03,,2013-03-13 08:54:00,
2013-03-13 04:02:00,23.0,-99.9,-100.00,WNW,283,6.0,12.0,-999,0.00,,,0.03,,2013-03-13 09:02:00,
2013-03-13 04:13:00,23.0,-99.9,-100.00,WNW,283,6.0,12.0,-999,0.00,,,0.03,,2013-03-13 09:13:00,
2013-03-13 04:23:00,23.0,-99.9,-100.00,WNW,283,6.0,12.0,-999,0.00,,,0.03,,2013-03-13 09:23:00,
2013-03-13 04:32:00,23.0,-99.9,-100.00,West,273,9.0,19.0,-999,0.00,,,0.03,,2013-03-13 09:32:00,
2013-03-13 04:42:00,23.0,-99.9,-100.00,West,273,9.0,19.0,-999,0.00,,,0.03,,2013-03-13 09:42:00,
2013-03-13 04:53:00,23.0,-99.9,-100.00,West,273,9.0,19.0,-999,0.00,,,0.03,,2013-03-13 09:53:00,
2013-03-13 05:02:00,22.0,-99.9,-100.00,WNW,283,9.0,14.0,-999,0.00,,,0.03,,2013-03-13 10:02:00,
2013-03-13 05:12:00,22.0,-99.9,-100.00,WNW,283,9.0,14.0,-999,0.00,,,0.03,,2013-03-13 10:12:00,
2013-03-13 05:22:00,22.0,-99.9,-100.00,WNW,283,9.0,14.0,-999,0.00,,,0.03,,2013-03-13 10:22:00,
2013-03-13 05:32:00,22.0,-99.9,-100.00,WNW,289,8.0,12.0,-999,0.00,,,0.03,,2013-03-13 10:32:00,
2013-03-13 05:42:00,22.0,-99.9,-100.00,WNW,289,8.0,12.0,-999,0.00,,,0.03,,2013-03-13 10:42:00,
2013-03-13 05:52:00,22.0,-99.9,-100.00,WNW,289,8.0,12.0,-999,0.00,,,0.03,,2013-03-13 10:52:00,
2013-03-13 06:02:00,22.0,-99.9,-100.00,West,276,6.0,11.0,-999,0.00,,,0.03,,2013-03-13 11:02:00,
2013-03-13 06:13:00,22.0,-99.9,-100.00,West,276,6.0,11.0,-999,0.00,,,0.03,,2013-03-13 11:13:00,
2013-03-13 06:23:00,22.0,-99.9,-100.00,West,276,6.0,11.0,-999,0.00,,,0.03,,2013-03-13 11:23:00,
2013-03-13 06:32:00,22.0,-99.9,-100.00,WNW,282,5.0,15.0,-999,0.00,,,0.03,,2013-03-13 11:32:00,
2013-03-13 06:42:00,22.0,-99.9,-100.00,WNW,282,5.0,15.0,-999,0.00,,,0.03,,2013-03-13 11:42:00,
2013-03-13 06:53:00,22.0,-99.9,-100.00,WNW,282,5.0,15.0,-999,0.00,,,0.03,,2013-03-13 11:53:00,
2013-03-13 07:02:00,22.0,-99.9,-100.00,WNW,301,5.0,12.0,-999,0.00,,,0.03,,2013-03-13 12:02:00,
2013-03-13 07:12:00,22.0,-99.9,-100.00,WNW,301,5.0,12.0,-999,0.00,,,0.03,,2013-03-13 12:12:00,
2013-03-13 07:22:00,22.0,-99.9,-100.00,WNW,301,5.0,12.0,-999,0.00,,,0.03,,2013-03-13 12:22:00,
2013-03-13 07:33:00,21.0,-99.9,-100.00,WNW,295,5.0,10.0,-999,0.00,,,0.03,,2013-03-13 12:33:00,
2013-03-13 07:42:00,21.0,-99.9,-100.00,WNW,295,5.0,10.0,-999,0.00,,,0.03,,2013-03-13 12:42:00,
2013-03-13 07:53:00,21.0,-99.9,-100.00,WNW,295,5.0,10.0,-999,0.00,,,0.03,,2013-03-13 12:53:00,
2013-03-13 08:02:00,22.0,-99.9,-100.00,WNW,293,4.0,8.0,-999,0.00,,,0.03,,2013-03-13 13:02:00,
2013-03-13 08:12:00,22.0,-99.9,-100.00,WNW,293,4.0,8.0,-999,0.00,,,0.03,,2013-03-13 13:12:00,
2013-03-13 08:22:00,22.0,-99.9,-100.00,WNW,293,4.0,8.0,-999,0.00,,,0.03,,2013-03-13 13:22:00,
2013-03-13 08:33:00,22.0,-99.9,-100.00,NW,305,5.0,15.0,-999,0.00,,,0.03,,2013-03-13 13:33:00,
2013-03-13 08:44:00,22.0,-99.9,-100.00,NW,305,5.0,15.0,-999,0.00,,,0.03,,2013-03-13 13:44:00,
2013-03-13 08:53:00,22.0,-99.9,-100.00,NW,305,5.0,15.0,-999,0.00,,,0.03,,2013-03-13 13:53:00,
2013-03-13 09:03:00,22.0,-99.9,-100.00,WNW,290,7.0,15.0,-999,0.00,,,0.03,,2013-03-13 14:03:00,
2013-03-13 09:12:00,22.0,-99.9,-100.00,WNW,290,7.0,15.0,-999,0.00,,,0.03,,2013-03-13 14:12:00,
2013-03-13 09:22:00,22.0,-99.9,-100.00,WNW,290,7.0,15.0,-999,0.00,,,0.03,,2013-03-13 14:22:00,
2013-03-13 09:34:00,24.0,-99.9,-100.00,NW,307,11.0,17.0,-999,0.00,,,0.03,,2013-03-13 14:34:00,
2013-03-13 09:43:00,24.0,-99.9,-100.00,NW,307,11.0,17.0,-999,0.00,,,0.03,,2013-03-13 14:43:00,
2013-03-13 09:53:00,24.0,-99.9,-100.00,NW,307,11.0,17.0,-999,0.00,,,0.03,,2013-03-13 14:53:00,
2013-03-13 10:03:00,24.0,-99.9,-100.00,NW,318,9.0,17.0,-999,0.00,,,0.03,,2013-03-13 15:03:00,
2013-03-13 10:12:00,24.0,-99.9,-100.00,NW,318,9.0,17.0,-999,0.00,,,0.03,,2013-03-13 15:12:00,
2013-03-13 10:22:00,24.0,-99.9,-100.00,NW,318,9.0,17.0,-999,0.00,,,0.03,,2013-03-13 15:22:00,
2013-03-13 10:30:00,27.0,-99.9,-100.00,WNW,303,7.0,14.0,-999,0.00,,,0.03,,2013-03-13 15:30:00,
2013-03-13 10:33:00,26.0,-99.9,-100.00,NW,311,7.0,15.0,-999,0.00,,,0.03,,2013-03-13 15:33:00,
2013-03-13 10:43:00,26.0,-99.9,-100.00,NW,311,7.0,15.0,-999,0.00,,,0.03,,2013-03-13 15:43:00,
2013-03-13 10:53:00,26.0,-99.9,-100.00,NW,311,7.0,15.0,-999,0.00,,,0.03,,2013-03-13 15:53:00,
2013-03-13 11:03:00,27.0,-99.9,-100.00,WNW,303,7.0,14.0,-999,0.00,,,0.03,,2013-03-13 16:03:00,
2013-03-13 11:13:00,27.0,-99.9,-100.00,WNW,303,7.0,14.0,-999,0.00,,,0.03,,2013-03-13 16:13:00,
2013-03-13 11:22:00,27.0,-99.9,-100.00,WNW,303,7.0,14.0,-999,0.00,,,0.03,,2013-03-13 16:22:00,
2013-03-13 11:42:00,27.0,-99.9,-100.00,WNW,290,8.0,14.0,-999,0.00,,,0.03,,2013-03-13 16:42:00,
2013-03-13 11:52:00,27.0,-99.9,-100.00,WNW,290,8.0,14.0,-999,0.00,,,0.03,,2013-03-13 16:52:00,
2013-03-13 12:03:00,28.0,-99.9,-100.00,NW,304,8.0,19.0,-999,0.00,,,0.03,,2013-03-13 17:03:00,
2013-03-13 12:12:00,28.0,-99.9,-100.00,NW,304,8.0,19.0,-999,0.00,,,0.03,,2013-03-13 17:12:00,
2013-03-13 12:23:00,28.0,-99.9,-100.00,NW,304,8.0,19.0,-999,0.00,,,0.03,,2013-03-13 17:23:00,
2013-03-13 12:33:00,29.0,-99.9,-100.00,NW,318,10.0,22.0,-999,0.00,,,0.03,,2013-03-13 17:33:00,
2013-03-13 12:43:00,29.0,-99.9,-100.00,NW,318,10.0,22.0,-999,0.00,,,0.03,,2013-03-13 17:43:00,
2013-03-13 12:53:00,29.0,-99.9,-100.00,NW,318,10.0,22.0,-999,0.00,,,0.03,,2013-03-13 17:53:00,
2013-03-13 13:03:00,29.0,-99.9,-100.00,WNW,286,10.0,18.0,-999,0.00,,,0.03,,2013-03-13 18:03:00,
2013-03-13 13:13:00,29.0,-99.9,-100.00,WNW,286,10.0,18.0,-999,0.00,,,0.03,,2013-03-13 18:13:00,
2013-03-13 13:22:00,29.0,-99.9,-100.00,WNW,286,10.0,18.0,-999,0.00,,,0.03,,2013-03-13 18:22:00,
2013-03-13 13:30:00,31.0,-99.9,-100.00,NW,309,10.0,18.0,-999,0.00,,,0.03,,2013-03-13 18:30:00,
2013-03-13 13:34:00,31.0,-99.9,-100.00,NW,306,9.0,16.0,-999,0.00,,,0.03,,2013-03-13 18:34:00,
2013-03-13 13:43:00,31.0,-99.9,-100.00,NW,306,9.0,16.0,-999,0.00,,,0.03,,2013-03-13 18:43:00,
2013-03-13 13:52:00,31.0,-99.9,-100.00,NW,306,9.0,16.0,-999,0.00,,,0.03,,2013-03-13 18:52:00,
2013-03-13 14:03:00,31.0,-99.9,-100.00,NW,309,10.0,18.0,-999,0.00,,,0.03,,2013-03-13 19:03:00,
2013-03-13 14:13:00,31.0,-99.9,-100.00,NW,309,10.0,18.0,-999,0.00,,,0.03,,2013-03-13 19:13:00,
2013-03-13 14:23:00,31.0,-99.9,-100.00,NW,309,10.0,18.0,-999,0.00,,,0.03,,2013-03-13 19:23:00,
2013-03-13 14:43:00,32.0,-99.9,-100.00,WNW,295,8.0,18.0,-999,0.00,,,0.03,,2013-03-13 19:43:00,
2013-03-13 14:53:00,32.0,-99.9,-100.00,WNW,295,8.0,18.0,-999,0.00,,,0.03,,2013-03-13 19:53:00,
2013-03-13 15:02:00,32.0,-99.9,-100.00,NW,312,8.0,21.0,-999,0.00,,,0.03,,2013-03-13 20:02:00,
2013-03-13 15:13:00,32.0,-99.9,-100.00,NW,312,8.0,21.0,-999,0.00,,,0.03,,2013-03-13 20:13:00,
2013-03-13 15:23:00,32.0,-99.9,-100.00,NW,312,8.0,21.0,-999,0.00,,,0.03,,2013-03-13 20:23:00,
2013-03-13 15:33:00,34.0,-99.9,-100.00,WNW,294,10.0,20.0,-999,0.00,,,0.03,,2013-03-13 20:33:00,
2013-03-13 15:42:00,34.0,-99.9,-100.00,WNW,294,10.0,20.0,-999,0.00,,,0.03,,2013-03-13 20:42:00,
2013-03-13 15:52:00,34.0,-99.9,-100.00,WNW,294,10.0,20.0,-999,0.00,,,0.03,,2013-03-13 20:52:00,
2013-03-13 16:02:00,34.0,-99.9,-100.00,NW,309,9.0,21.0,-999,0.00,,,0.03,,2013-03-13 21:02:00,
2013-03-13 16:12:00,34.0,-99.9,-100.00,NW,309,9.0,21.0,-999,0.00,,,0.03,,2013-03-13 21:12:00,
2013-03-13 16:22:00,34.0,-99.9,-100.00,NW,309,9.0,21.0,-999,0.00,,,0.03,,2013-03-13 21:22:00,
2013-03-13 16:30:00,33.0,-99.9,-100.00,West,280,8.0,17.0,-999,0.00,,,0.01,,2013-03-13 21:30:00,
2013-03-13 16:34:00,34.0,-99.9,-100.00,West,273,9.0,13.0,-999,0.00,,,0.03,,2013-03-13 21:34:00,
2013-03-13 16:42:00,34.0,-99.9,-100.00,West,273,9.0,13.0,-999,0.00,,,0.03,,2013-03-13 21:42:00,
2013-03-13 16:52:00,34.0,-99.9,-100.00,West,273,9.0,13.0,-999,0.00,,,0.03,,2013-03-13 21:52:00,
2013-03-13 17:02:00,33.0,-99.9,-100.00,West,280,8.0,17.0,-999,0.00,,,0.01,,2013-03-13 22:02:00,
2013-03-13 17:12:00,33.0,-99.9,-100.00,West,280,8.0,17.0,-999,0.00,,,0.01,,2013-03-13 22:12:00,
2013-03-13 17:22:00,33.0,-99.9,-100.00,West,280,8.0,17.0,-999,0.00,,,0.01,,2013-03-13 22:22:00,
2013-03-13 17:43:00,33.0,-99.9,-100.00,WNW,282,9.0,13.0,-999,0.00,,,0.00,,2013-03-13 22:43:00,
2013-03-13 17:52:00,33.0,-99.9,-100.00,WNW,282,9.0,13.0,-999,0.00,,,0.00,,2013-03-13 22:52:00,
2013-03-13 18:02:00,33.0,-99.9,-100.00,WNW,290,6.0,12.0,-999,0.00,,,0.00,,2013-03-13 23:02:00,
2013-03-13 18:13:00,33.0,-99.9,-100.00,WNW,290,6.0,12.0,-999,0.00,,,0.00,,2013-03-13 23:13:00,
2013-03-13 18:22:00,33.0,-99.9,-100.00,WNW,290,6.0,12.0,-999,0.00,,,0.00,,2013-03-13 23:22:00,
2013-03-13 18:32:00,33.0,-99.9,-100.00,WNW,287,8.0,13.0,-999,0.00,,,0.00,,2013-03-13 23:32:00,
2013-03-13 18:43:00,33.0,-99.9,-100.00,WNW,287,8.0,13.0,-999,0.00,,,0.00,,2013-03-13 23:43:00,
2013-03-13 18:52:00,33.0,-99.9,-100.00,WNW,287,8.0,13.0,-999,0.00,,,0.00,,2013-03-13 23:52:00,
2013-03-13 19:02:00,33.0,-99.9,-100.00,WNW,290,4.0,16.0,-999,0.00,,,0.00,,2013-03-14 00:02:00,
2013-03-13 19:13:00,33.0,-99.9,-100.00,WNW,290,4.0,16.0,-999,0.00,,,0.00,,2013-03-14 00:13:00,
2013-03-13 19:22:00,33.0,-99.9,-100.00,WNW,290,4.0,16.0,-999,0.00,,,0.00,,2013-03-14 00:22:00,
2013-03-13 19:33:00,31.0,-99.9,-100.00,NW,305,3.0,7.0,-999,0.00,,,0.00,,2013-03-14 00:33:00,
2013-03-13 19:43:00,31.0,-99.9,-100.00,NW,305,3.0,7.0,-999,0.00,,,0.00,,2013-03-14 00:43:00,
2013-03-13 19:53:00,31.0,-99.9,-100.00,NW,305,3.0,7.0,-999,0.00,,,0.00,,2013-03-14 00:53:00,
2013-03-13 20:03:00,30.0,-99.9,-100.00,WNW,293,3.0,8.0,-999,0.00,,,0.00,,2013-03-14 01:03:00,
2013-03-13 20:12:00,30.0,-99.9,-100.00,WNW,293,3.0,8.0,-999,0.00,,,0.00,,2013-03-14 01:12:00,
2013-03-13 20:23:00,30.0,-99.9,-100.00,WNW,293,3.0,8.0,-999,0.00,,,0.00,,2013-03-14 01:23:00,
2013-03-13 20:33:00,30.0,-99.9,-100.00,WNW,286,4.0,6.0,-999,0.00,,,0.00,,2013-03-14 01:33:00,
2013-03-13 20:42:00,30.0,-99.9,-100.00,WNW,286,4.0,6.0,-999,0.00,,,0.00,,2013-03-14 01:42:00,
2013-03-13 20:53:00,30.0,-99.9,-100.00,WNW,286,4.0,6.0,-999,0.00,,,0.00,,2013-03-14 01:53:00,
2013-03-13 21:02:00,29.0,-99.9,-100.00,NW,308,3.0,6.0,-999,0.00,,,0.00,,2013-03-14 02:02:00,
2013-03-13 21:12:00,29.0,-99.9,-100.00,NW,308,3.0,6.0,-999,0.00,,,0.00,,2013-03-14 02:12:00,
2013-03-13 21:22:00,29.0,-99.9,-100.00,NW,308,3.0,6.0,-999,0.00,,,0.00,,2013-03-14 02:22:00,
2013-03-13 21:33:00,29.0,-99.9,-100.00,West,261,3.0,4.0,-999,0.00,,,0.00,,2013-03-14 02:33:00,
2013-03-13 21:42:00,29.0,-99.9,-100.00,West,261,3.0,4.0,-999,0.00,,,0.00,,2013-03-14 02:42:00,
2013-03-13 21:52:00,29.0,-99.9,-100.00,West,261,3.0,4.0,-999,0.00,,,0.00,,2013-03-14 02:52:00,
2013-03-13 22:02:00,28.0,-99.9,-100.00,West,268,3.0,6.0,-999,0.00,,,0.00,,2013-03-14 03:02:00,
2013-03-13 22:12:00,28.0,-99.9,-100.00,West,268,3.0,6.0,-999,0.00,,,0.00,,2013-03-14 03:12:00,
2013-03-13 22:23:00,28.0,-99.9,-100.00,West,268,3.0,6.0,-999,0.00,,,0.00,,2013-03-14 03:23:00,
2013-03-13 22:33:00,28.0,-99.9,-100.00,West,267,5.0,6.0,-999,0.00,,,0.00,,2013-03-14 03:33:00,
2013-03-13 22:43:00,28.0,-99.9,-100.00,West,267,5.0,6.0,-999,0.00,,,0.00,,2013-03-14 03:43:00,
2013-03-13 22:53:00,28.0,-99.9,-100.00,West,267,5.0,6.0,-999,0.00,,,0.00,,2013-03-14 03:53:00,
2013-03-13 23:12:00,27.0,-99.9,-100.00,West,268,3.0,5.0,-999,0.00,,,0.00,,2013-03-14 04:12:00,
2013-03-13 23:22:00,27.0,-99.9,-100.00,West,268,3.0,5.0,-999,0.00,,,0.00,,2013-03-14 04:22:00,
2013-03-13 23:33:00,27.0,-99.9,-100.00,West,259,4.0,5.0,-999,0.00,,,0.00,,2013-03-14 04:33:00,
2013-03-13 23:42:00,27.0,-99.9,-100.00,West,259,4.0,5.0,-999,0.00,,,0.00,,2013-03-14 04:42:00,
2013-03-13 23:53:00,27.0,-99.9,-100.00,West,259,4.0,5.0,-999,0.00,,,0.00,,2013-03-14 04:53:00,